createdAt,value
2022-11-15T00:00:57.754Z,85.50
2022-11-15T00:03:26.295Z,83.20
2022-11-15T00:05:55.082Z,83.70
2022-11-15T00:08:21.966Z,82.70
2022-11-15T00:10:56.521Z,83.50
2022-11-15T00:13:23.505Z,82.40
2022-11-15T00:15:50.091Z,82.60
2022-11-15T00:18:17.717Z,82.60
2022-11-15T00:20:44.926Z,82.70
2022-11-15T00:23:11.839Z,82.30
2022-11-15T00:25:38.458Z,82.30
2022-11-15T00:28:05.136Z,82.00
2022-11-15T00:30:31.946Z,83.60
2022-11-15T00:33:06.230Z,84.40
2022-11-15T00:35:34.469Z,85.30
2022-11-15T00:38:02.887Z,83.70
2022-11-15T00:40:30.227Z,83.60
2022-11-15T00:42:57.087Z,83.40
2022-11-15T00:45:24.071Z,83.80
2022-11-15T00:47:51.007Z,83.60
2022-11-15T00:50:17.822Z,85.60
2022-11-15T00:52:44.915Z,83.80
2022-11-15T00:55:16.887Z,85.50
2022-11-15T00:57:43.526Z,84.00
2022-11-15T01:00:11.079Z,84.30
2022-11-15T01:02:37.742Z,83.60
2022-11-15T01:05:05.373Z,84.40
2022-11-15T01:07:32.301Z,83.70
2022-11-15T01:09:58.954Z,83.50
2022-11-15T01:12:25.546Z,83.50
2022-11-15T01:14:52.155Z,83.40
2022-11-15T01:17:18.865Z,83.50
2022-11-15T01:19:46.263Z,83.40
2022-11-15T01:22:13.039Z,82.80
2022-11-15T01:24:39.679Z,82.70
2022-11-15T01:27:06.301Z,83.60
2022-11-15T01:29:32.896Z,82.80
2022-11-15T01:31:59.586Z,82.40
2022-11-15T01:34:26.205Z,82.20
2022-11-15T01:36:52.825Z,82.30
2022-11-15T01:39:20.058Z,82.30
2022-11-15T01:41:46.743Z,82.30
2022-11-15T01:44:31.824Z,82.10
2022-11-15T01:47:00.784Z,82.00
2022-11-15T01:49:30.947Z,81.90
2022-11-15T01:51:58.368Z,82.00
2022-11-15T01:54:25.478Z,81.90
2022-11-15T01:57:02.906Z,81.80
2022-11-15T01:59:29.743Z,81.90
2022-11-15T02:01:56.696Z,81.70
2022-11-15T02:04:31.159Z,81.70
2022-11-15T02:06:58.039Z,81.90
2022-11-15T02:09:24.816Z,81.80
2022-11-15T02:11:52.872Z,81.90
2022-11-15T02:14:21.021Z,81.90
2022-11-15T02:16:50.758Z,81.90
2022-11-15T02:19:20.074Z,81.90
2022-11-15T02:22:30.825Z,82.10
2022-11-15T02:25:32.531Z,82.40
2022-11-15T02:28:16.546Z,82.70
2022-11-15T02:30:55.013Z,82.30
2022-11-15T02:33:43.684Z,82.30
2022-11-15T02:36:26.838Z,82.20
2022-11-15T02:39:09.807Z,82.30
2022-11-15T02:41:46.825Z,82.40
2022-11-15T02:44:21.154Z,82.50
2022-11-15T02:47:13.852Z,82.30
2022-11-15T02:49:48.010Z,82.50
2022-11-15T02:52:20.573Z,82.50
2022-11-15T02:54:56.145Z,82.40
2022-11-15T02:57:53.295Z,82.40
2022-11-15T03:00:21.412Z,82.50
2022-11-15T03:03:02.930Z,82.20
2022-11-15T03:05:53.432Z,82.40
2022-11-15T03:08:30.112Z,82.20
2022-11-15T03:11:13.087Z,82.20
2022-11-15T03:13:57.443Z,82.30
2022-11-15T03:16:51.810Z,82.20
2022-11-15T03:19:27.502Z,82.20
2022-11-15T03:21:56.984Z,82.50
2022-11-15T03:24:26.375Z,82.70
2022-11-15T03:26:55.864Z,82.50
2022-11-15T03:29:27.080Z,82.70
2022-11-15T03:32:00.538Z,82.70
2022-11-15T03:34:30.778Z,82.70
2022-11-15T03:36:57.582Z,83.00
2022-11-15T03:39:25.149Z,82.80
2022-11-15T03:42:09.034Z,82.60
2022-11-15T03:44:39.892Z,82.70
2022-11-15T03:47:19.006Z,83.30
2022-11-15T03:49:54.650Z,83.00
2022-11-15T03:52:22.832Z,83.40
2022-11-15T03:54:53.231Z,83.60
2022-11-15T03:57:19.854Z,83.50
2022-11-15T03:59:46.526Z,83.40
2022-11-15T04:02:15.068Z,83.80
2022-11-15T04:04:41.748Z,83.60
2022-11-15T04:07:08.474Z,83.50
2022-11-15T04:09:55.372Z,83.20
2022-11-15T04:12:34.228Z,83.30
2022-11-15T04:15:09.529Z,83.10
2022-11-15T04:17:42.174Z,83.00
2022-11-15T04:20:29.480Z,82.90
2022-11-15T04:23:15.941Z,83.20
2022-11-15T04:25:43.614Z,83.10
2022-11-15T04:28:10.682Z,82.90
2022-11-15T04:30:37.554Z,82.90
2022-11-15T04:33:04.302Z,82.90
2022-11-15T04:35:31.133Z,82.80
2022-11-15T04:37:59.253Z,83.30
2022-11-15T04:40:25.982Z,83.60
2022-11-15T04:42:52.839Z,83.40
2022-11-15T04:45:19.978Z,83.20
2022-11-15T04:47:47.375Z,83.20
2022-11-15T04:50:15.537Z,83.10
2022-11-15T04:52:43.309Z,83.10
2022-11-15T04:55:12.992Z,83.30
2022-11-15T04:57:39.676Z,83.30
2022-11-15T05:00:08.614Z,83.10
2022-11-15T05:02:53.639Z,83.20
2022-11-15T05:05:20.323Z,83.80
2022-11-15T05:07:46.959Z,84.40
2022-11-15T05:10:13.574Z,83.30
2022-11-15T05:12:40.308Z,83.60
2022-11-15T05:15:07.453Z,83.70
2022-11-15T05:17:34.075Z,83.80
2022-11-15T05:20:00.833Z,83.60
2022-11-15T05:22:28.045Z,83.40
2022-11-15T05:24:54.738Z,83.40
2022-11-15T05:27:21.391Z,83.30
2022-11-15T05:29:47.985Z,83.10
2022-11-15T05:32:14.736Z,83.00
2022-11-15T05:34:41.612Z,83.10
2022-11-15T05:37:08.573Z,82.80
2022-11-15T05:39:35.171Z,82.80
2022-11-15T05:42:11.339Z,82.60
2022-11-15T05:44:40.628Z,82.70
2022-11-15T05:47:11.214Z,82.70
2022-11-15T05:49:41.313Z,82.60
2022-11-15T05:52:09.497Z,82.70
2022-11-15T05:54:37.542Z,82.70
2022-11-15T05:57:05.861Z,82.70
2022-11-15T05:59:34.142Z,83.10
2022-11-15T06:02:01.002Z,83.00
2022-11-15T06:04:27.719Z,83.20
2022-11-15T06:06:54.562Z,83.10
2022-11-15T06:09:21.231Z,82.90
2022-11-15T06:11:48.740Z,83.00
2022-11-15T06:14:15.355Z,82.90
2022-11-15T06:16:41.997Z,82.90
2022-11-15T06:19:11.405Z,82.80
2022-11-15T06:21:38.017Z,82.70
2022-11-15T06:24:05.581Z,82.80
2022-11-15T06:26:32.450Z,83.00
2022-11-15T06:28:59.139Z,82.90
2022-11-15T06:31:25.763Z,83.00
2022-11-15T06:33:52.445Z,83.00
2022-11-15T06:36:19.321Z,83.20
2022-11-15T06:38:46.197Z,83.40
2022-11-15T06:41:14.293Z,83.10
2022-11-15T06:43:41.744Z,83.30
2022-11-15T06:46:09.090Z,83.40
2022-11-15T06:48:37.100Z,83.00
2022-11-15T06:51:05.117Z,83.00
2022-11-15T06:53:32.962Z,82.90
2022-11-15T06:56:07.263Z,82.90
2022-11-15T06:58:34.249Z,82.90
2022-11-15T07:01:03.347Z,82.80
2022-11-15T07:03:30.630Z,82.80
2022-11-15T07:06:02.962Z,82.80
2022-11-15T07:08:34.037Z,83.70
2022-11-15T07:11:05.830Z,82.90
2022-11-15T07:13:35.013Z,83.00
2022-11-15T07:16:06.985Z,83.00
2022-11-15T07:18:38.485Z,83.10
2022-11-15T07:21:06.764Z,83.20
2022-11-15T07:23:34.465Z,83.50
2022-11-15T07:26:01.596Z,83.60
2022-11-15T07:28:29.356Z,83.70
2022-11-15T07:30:56.194Z,84.00
2022-11-15T07:33:22.827Z,84.00
2022-11-15T07:35:49.456Z,83.90
2022-11-15T07:38:20.428Z,83.80
2022-11-15T07:40:47.853Z,83.90
2022-11-15T07:43:14.719Z,83.90
2022-11-15T07:45:45.577Z,83.70
2022-11-15T07:48:12.542Z,83.60
2022-11-15T07:50:43.229Z,83.80
2022-11-15T07:53:11.172Z,83.60
2022-11-15T07:55:38.395Z,83.60
2022-11-15T07:58:07.182Z,83.40
2022-11-15T08:00:34.130Z,83.40
2022-11-15T08:03:10.192Z,83.20
2022-11-15T08:05:38.312Z,83.40
2022-11-15T08:08:05.728Z,83.30
2022-11-15T08:10:35.268Z,83.20
2022-11-15T08:13:10.848Z,83.20
2022-11-15T08:15:38.366Z,83.00
2022-11-15T08:18:13.293Z,83.70
2022-11-15T08:20:39.965Z,83.10
2022-11-15T08:23:07.671Z,83.20
2022-11-15T08:25:35.830Z,83.10
2022-11-15T08:28:05.290Z,83.20
2022-11-15T08:30:35.452Z,83.30
2022-11-15T08:33:02.143Z,83.50
2022-11-15T08:35:29.632Z,83.40
2022-11-15T08:37:56.577Z,83.60
2022-11-15T08:40:23.889Z,83.40
2022-11-15T08:42:50.540Z,83.50
2022-11-15T08:45:17.291Z,84.30
2022-11-15T08:47:45.109Z,84.10
2022-11-15T08:50:14.040Z,84.70
2022-11-15T08:52:40.709Z,84.10
2022-11-15T08:55:07.819Z,84.50
2022-11-15T08:57:34.446Z,84.10
2022-11-15T09:00:01.204Z,84.20
2022-11-15T09:02:27.822Z,84.40
2022-11-15T09:04:57.319Z,84.40
2022-11-15T09:07:25.100Z,84.50
2022-11-15T09:09:51.829Z,84.70
2022-11-15T09:12:18.452Z,84.50
2022-11-15T09:14:45.064Z,84.40
2022-11-15T09:17:11.686Z,84.10
2022-11-15T09:19:38.502Z,84.30
2022-11-15T09:22:09.381Z,83.90
2022-11-15T09:24:36.402Z,83.80
2022-11-15T09:27:03.815Z,83.60
2022-11-15T09:29:30.489Z,83.40
2022-11-15T09:31:57.137Z,83.30
2022-11-15T09:34:23.779Z,83.40
2022-11-15T09:36:50.418Z,83.30
2022-11-15T09:39:17.081Z,83.10
2022-11-15T09:42:10.355Z,83.40
2022-11-15T09:44:54.988Z,83.00
2022-11-15T09:47:51.837Z,83.10
2022-11-15T09:50:47.812Z,82.90
2022-11-15T09:53:47.919Z,83.10
2022-11-15T09:56:22.078Z,83.00
2022-11-15T09:58:56.176Z,82.70
2022-11-15T10:02:05.110Z,82.70
2022-11-15T10:04:32.476Z,82.60
2022-11-15T10:07:29.180Z,82.50
2022-11-15T10:10:02.848Z,82.30
2022-11-15T10:12:30.875Z,82.50
2022-11-15T10:15:10.145Z,82.40
2022-11-15T10:17:57.964Z,81.90
2022-11-15T10:20:30.148Z,81.70
2022-11-15T10:23:07.389Z,81.30
2022-11-15T10:25:35.287Z,80.60
2022-11-15T10:28:07.806Z,80.70
2022-11-15T10:30:37.636Z,80.50
2022-11-15T10:33:22.359Z,80.30
2022-11-15T10:35:49.099Z,79.80
2022-11-15T10:38:15.751Z,80.00
2022-11-15T10:40:44.655Z,80.00
2022-11-15T10:43:14.658Z,79.50
2022-11-15T10:45:41.915Z,79.00
2022-11-15T10:48:14.547Z,78.90
2022-11-15T10:50:43.748Z,79.00
2022-11-15T10:53:26.118Z,79.10
2022-11-15T10:55:57.445Z,78.40
2022-11-15T10:58:36.147Z,78.20
2022-11-15T11:01:15.698Z,78.20
2022-11-15T11:03:44.286Z,77.80
2022-11-15T11:06:18.032Z,76.40
2022-11-15T11:09:02.360Z,76.60
2022-11-15T11:11:49.235Z,76.00
2022-11-15T11:14:24.252Z,75.50
2022-11-15T11:17:03.857Z,75.70
2022-11-15T11:20:00.395Z,75.60
2022-11-15T11:22:41.132Z,74.60
2022-11-15T11:25:37.097Z,74.40
2022-11-15T11:28:40.630Z,74.70
2022-11-15T11:32:02.997Z,74.70
2022-11-15T11:34:48.939Z,74.70
2022-11-15T11:37:32.973Z,74.70
2022-11-15T11:40:31.146Z,76.00
2022-11-15T11:43:15.778Z,77.30
2022-11-15T11:46:07.712Z,77.20
2022-11-15T11:48:58.047Z,76.60
2022-11-15T11:51:32.637Z,77.90
2022-11-15T11:54:07.024Z,76.40
2022-11-15T11:56:35.937Z,75.90
2022-11-15T11:59:34.726Z,75.00
2022-11-15T12:02:16.502Z,74.30
2022-11-15T12:04:48.455Z,74.70
2022-11-15T12:07:18.504Z,75.30
2022-11-15T12:09:57.359Z,73.70
2022-11-15T12:12:43.809Z,76.30
2022-11-15T12:15:10.591Z,74.10
2022-11-15T12:17:39.510Z,73.60
2022-11-15T12:20:22.739Z,73.80
2022-11-15T12:22:55.309Z,72.70
2022-11-15T12:25:49.498Z,72.50
2022-11-15T12:28:20.006Z,74.20
2022-11-15T12:30:52.386Z,73.50
2022-11-15T12:33:38.159Z,72.20
2022-11-15T12:36:24.767Z,71.70
2022-11-15T12:39:07.231Z,71.80
2022-11-15T12:41:39.285Z,72.00
2022-11-15T12:44:11.330Z,71.30
2022-11-15T12:46:41.427Z,71.00
2022-11-15T12:49:28.134Z,71.20
2022-11-15T12:51:57.894Z,70.80
2022-11-15T12:54:24.543Z,70.30
2022-11-15T12:57:09.883Z,69.60
2022-11-15T12:59:55.256Z,70.10
2022-11-15T13:02:31.018Z,70.80
2022-11-15T13:05:23.182Z,71.30
2022-11-15T13:07:49.676Z,70.50
2022-11-15T13:10:28.522Z,70.70
2022-11-15T13:13:04.846Z,70.20
2022-11-15T13:15:54.784Z,70.70
2022-11-15T13:18:37.452Z,70.80
2022-11-15T13:21:26.699Z,70.70
2022-11-15T13:23:55.046Z,72.20
2022-11-15T13:26:22.352Z,71.80
2022-11-15T13:28:52.760Z,71.10
2022-11-15T13:31:41.330Z,71.30
2022-11-15T13:34:50.881Z,71.20
2022-11-15T13:37:21.278Z,71.10
2022-11-15T13:39:49.435Z,71.30
2022-11-15T13:42:20.586Z,70.90
2022-11-15T13:45:03.126Z,71.00
2022-11-15T13:47:31.099Z,71.20
2022-11-15T13:49:58.686Z,70.90
2022-11-15T13:52:32.224Z,70.60
2022-11-15T13:55:04.275Z,71.10
2022-11-15T13:57:45.406Z,71.40
2022-11-15T14:00:30.927Z,71.50
2022-11-15T14:03:05.359Z,71.50
2022-11-15T14:05:32.087Z,72.10
2022-11-15T14:08:20.350Z,72.00
2022-11-15T14:10:47.076Z,73.10
2022-11-15T14:13:32.269Z,72.70
2022-11-15T14:16:19.976Z,72.60
2022-11-15T14:18:48.204Z,73.50
2022-11-15T14:21:15.364Z,73.20
2022-11-15T14:23:42.955Z,72.90
2022-11-15T14:26:31.712Z,72.90
2022-11-15T14:28:58.446Z,72.90
2022-11-15T14:31:25.365Z,73.10
2022-11-15T14:33:52.016Z,72.90
2022-11-15T14:36:21.215Z,72.80
2022-11-15T14:38:48.769Z,72.90
2022-11-15T14:41:24.689Z,72.80
2022-11-15T14:43:52.870Z,73.00
2022-11-15T14:46:19.965Z,72.90
2022-11-15T14:48:46.636Z,73.00
2022-11-15T14:51:22.365Z,72.90
2022-11-15T14:53:49.653Z,72.90
2022-11-15T14:56:17.615Z,73.20
2022-11-15T14:58:44.267Z,73.30
2022-11-15T15:01:17.274Z,73.30
2022-11-15T15:03:45.111Z,73.40
2022-11-15T15:06:17.950Z,73.60
2022-11-15T15:08:46.409Z,73.70
2022-11-15T15:11:19.721Z,74.00
2022-11-15T15:13:46.322Z,73.80
2022-11-15T15:16:12.966Z,73.90
2022-11-15T15:18:39.619Z,74.70
2022-11-15T15:21:21.252Z,74.10
2022-11-15T15:23:48.265Z,74.20
2022-11-15T15:26:15.236Z,74.10
2022-11-15T15:28:42.225Z,73.90
2022-11-15T15:31:10.478Z,73.80
2022-11-15T15:33:37.970Z,74.10
2022-11-15T15:36:05.246Z,74.10
2022-11-15T15:38:32.172Z,73.80
2022-11-15T15:41:00.694Z,74.00
2022-11-15T15:43:27.359Z,73.90
2022-11-15T15:45:53.994Z,73.70
2022-11-15T15:48:20.603Z,73.90
2022-11-15T15:50:48.270Z,74.00
2022-11-15T15:53:14.995Z,74.10
2022-11-15T15:55:41.930Z,74.50
2022-11-15T15:58:09.119Z,74.50
2022-11-15T16:00:35.972Z,74.70
2022-11-15T16:03:02.980Z,74.80
2022-11-15T16:05:29.720Z,74.80
2022-11-15T16:07:56.414Z,74.90
2022-11-15T16:10:26.036Z,74.90
2022-11-15T16:12:53.982Z,75.10
2022-11-15T16:15:22.081Z,75.30
2022-11-15T16:17:52.402Z,75.30
2022-11-15T16:20:50.897Z,76.10
2022-11-15T16:23:20.886Z,75.60
2022-11-15T16:25:58.038Z,75.50
2022-11-15T16:28:30.334Z,75.70
2022-11-15T16:31:14.378Z,75.80
2022-11-15T16:33:41.508Z,75.90
2022-11-15T16:36:18.343Z,76.00
2022-11-15T16:38:44.950Z,76.10
2022-11-15T16:41:11.551Z,76.40
2022-11-15T16:43:38.303Z,77.20
2022-11-15T16:46:13.820Z,76.70
2022-11-15T16:48:40.472Z,76.90
2022-11-15T16:51:08.051Z,77.00
2022-11-15T16:53:34.674Z,77.00
2022-11-15T16:56:01.356Z,76.90
2022-11-15T16:58:28.094Z,77.00
2022-11-15T17:00:56.470Z,77.00
2022-11-15T17:03:24.441Z,77.00
2022-11-15T17:05:51.568Z,77.20
2022-11-15T17:08:20.687Z,77.20
2022-11-15T17:10:47.453Z,77.30
2022-11-15T17:13:14.611Z,77.50
2022-11-15T17:15:41.358Z,77.30
2022-11-15T17:18:13.136Z,77.60
2022-11-15T17:20:40.771Z,77.80
2022-11-15T17:23:12.174Z,77.90
2022-11-15T17:25:38.824Z,77.80
2022-11-15T17:28:05.510Z,77.90
2022-11-15T17:30:34.310Z,78.00
2022-11-15T17:33:01.174Z,77.90
2022-11-15T17:35:27.793Z,77.90
2022-11-15T17:37:54.445Z,78.20
2022-11-15T17:40:21.082Z,78.60
2022-11-15T17:42:48.116Z,78.80
2022-11-15T17:45:14.863Z,78.90
2022-11-15T17:47:41.599Z,79.20
2022-11-15T17:50:09.577Z,79.00
2022-11-15T17:52:36.322Z,79.10
2022-11-15T17:55:03.144Z,78.80
2022-11-15T17:57:29.761Z,79.10
2022-11-15T17:59:56.407Z,78.90
2022-11-15T18:02:23.039Z,78.60
2022-11-15T18:04:49.743Z,78.70
2022-11-15T18:07:16.368Z,78.60
2022-11-15T18:09:43.995Z,78.90
2022-11-15T18:12:11.666Z,79.00
2022-11-15T18:14:38.600Z,79.10
2022-11-15T18:17:05.511Z,79.10
2022-11-15T18:19:32.312Z,79.40
2022-11-15T18:22:00.765Z,79.40
2022-11-15T18:24:32.678Z,79.70
2022-11-15T18:26:59.934Z,79.60
2022-11-15T18:29:27.082Z,79.60
2022-11-15T18:31:57.420Z,79.70
2022-11-15T18:34:25.749Z,79.80
2022-11-15T18:36:53.259Z,80.00
2022-11-15T18:39:20.108Z,80.00
2022-11-15T18:41:47.269Z,79.90
2022-11-15T18:44:14.187Z,80.00
2022-11-15T18:46:42.223Z,80.10
2022-11-15T18:49:10.563Z,80.40
2022-11-15T18:51:41.473Z,80.10
2022-11-15T18:54:10.496Z,80.10
2022-11-15T18:56:38.166Z,80.10
2022-11-15T18:59:06.100Z,80.20
2022-11-15T19:01:36.021Z,80.20
2022-11-15T19:04:14.000Z,80.30
2022-11-15T19:06:42.742Z,80.20
2022-11-15T19:09:12.678Z,80.30
2022-11-15T19:11:40.135Z,80.30
2022-11-15T19:14:11.834Z,80.40
2022-11-15T19:16:41.402Z,80.40
2022-11-15T19:19:13.209Z,80.40
2022-11-15T19:21:39.848Z,80.30
2022-11-15T19:24:06.690Z,80.40
2022-11-15T19:26:33.703Z,80.40
2022-11-15T19:29:03.056Z,80.20
2022-11-15T19:31:31.577Z,80.20
2022-11-15T19:34:00.240Z,80.90
2022-11-15T19:36:32.264Z,80.10
2022-11-15T19:38:59.420Z,80.10
2022-11-15T19:41:26.232Z,79.90
2022-11-15T19:43:53.202Z,80.00
2022-11-15T19:46:21.829Z,80.10
2022-11-15T19:48:48.970Z,80.00
2022-11-15T19:51:24.458Z,80.20
2022-11-15T19:53:56.153Z,80.20
2022-11-15T19:56:23.687Z,80.10
2022-11-15T19:58:55.226Z,80.00
2022-11-15T20:01:26.055Z,80.10
2022-11-15T20:03:58.617Z,80.20
2022-11-15T20:06:36.528Z,80.10
2022-11-15T20:09:03.984Z,80.30
2022-11-15T20:11:30.979Z,80.30
2022-11-15T20:13:59.311Z,80.50
2022-11-15T20:16:26.258Z,80.30
2022-11-15T20:18:53.574Z,80.30
2022-11-15T20:21:21.437Z,80.30
2022-11-15T20:23:50.602Z,80.20
2022-11-15T20:26:18.251Z,80.10
2022-11-15T20:28:45.499Z,80.10
2022-11-15T20:31:12.959Z,80.50
2022-11-15T20:33:40.085Z,80.40
2022-11-15T20:36:09.551Z,80.20
2022-11-15T20:38:37.315Z,80.40
2022-11-15T20:41:04.328Z,80.20
2022-11-15T20:43:31.006Z,80.10
2022-11-15T20:45:57.871Z,80.20
2022-11-15T20:48:24.624Z,80.50
2022-11-15T20:50:51.327Z,80.50
2022-11-15T20:53:22.163Z,80.50
2022-11-15T20:55:49.829Z,80.50
2022-11-15T20:58:17.599Z,80.40
2022-11-15T21:00:45.867Z,80.90
2022-11-15T21:03:14.082Z,80.60
2022-11-15T21:05:42.611Z,80.50
2022-11-15T21:08:10.884Z,80.80
2022-11-15T21:10:56.467Z,80.60
2022-11-15T21:13:23.113Z,81.00
2022-11-15T21:15:50.139Z,80.90
2022-11-15T21:18:16.795Z,80.60
2022-11-15T21:20:43.547Z,80.60
2022-11-15T21:23:11.548Z,80.70
2022-11-15T21:25:38.293Z,80.50
2022-11-15T21:28:05.239Z,80.60
2022-11-15T21:30:31.909Z,80.90
2022-11-15T21:32:58.545Z,80.60
2022-11-15T21:35:25.338Z,80.50
2022-11-15T21:37:56.666Z,80.70
2022-11-15T21:40:24.652Z,80.70
2022-11-15T21:42:51.296Z,80.80
2022-11-15T21:45:17.938Z,81.00
2022-11-15T21:47:46.297Z,81.10
2022-11-15T21:50:13.857Z,80.90
2022-11-15T21:52:41.084Z,80.90
2022-11-15T21:55:08.610Z,80.80
2022-11-15T21:57:35.366Z,81.10
2022-11-15T22:00:20.936Z,81.10
2022-11-15T22:02:47.616Z,81.20
2022-11-15T22:05:14.363Z,81.40
2022-11-15T22:07:41.026Z,81.10
2022-11-15T22:10:08.055Z,81.20
2022-11-15T22:12:34.729Z,81.10
2022-11-15T22:15:01.420Z,80.90
2022-11-15T22:17:48.079Z,81.10
2022-11-15T22:20:44.057Z,81.20
2022-11-15T22:23:02.947Z,81.00
2022-11-15T22:25:29.733Z,81.20
2022-11-15T22:27:56.842Z,81.00
2022-11-15T22:30:24.310Z,81.00
2022-11-15T22:32:51.059Z,81.10
2022-11-15T22:35:17.822Z,81.30
2022-11-15T22:37:44.495Z,81.20
2022-11-15T22:40:11.301Z,81.20
2022-11-15T22:42:37.977Z,81.30
2022-11-15T22:45:05.040Z,81.50
2022-11-15T22:47:31.784Z,81.40
2022-11-15T22:49:58.497Z,81.30
2022-11-15T22:52:25.170Z,81.20
2022-11-15T22:54:51.937Z,81.20
2022-11-15T22:57:18.668Z,81.30
2022-11-15T22:59:45.816Z,81.30
2022-11-15T23:02:12.588Z,81.30
2022-11-15T23:04:39.347Z,81.50
2022-11-15T23:07:06.140Z,81.20
2022-11-15T23:09:32.938Z,81.30
2022-11-15T23:12:18.469Z,81.40
2022-11-15T23:14:45.218Z,81.20
2022-11-15T23:17:11.960Z,81.30
2022-11-15T23:19:38.664Z,81.40
2022-11-15T23:22:24.349Z,81.20
2022-11-15T23:24:52.526Z,81.30
2022-11-15T23:27:20.621Z,81.20
2022-11-15T23:30:06.409Z,81.20
2022-11-15T23:32:51.856Z,81.10
2022-11-15T23:35:18.503Z,81.70
2022-11-15T23:37:45.505Z,81.60
2022-11-15T23:40:13.035Z,81.70
2022-11-15T23:42:39.818Z,81.70
2022-11-15T23:45:10.259Z,81.60
2022-11-15T23:47:36.936Z,81.80
2022-11-15T23:50:04.074Z,81.70
2022-11-15T23:52:30.804Z,81.80
2022-11-15T23:54:57.481Z,81.90
2022-11-15T23:57:24.155Z,81.70
2022-11-15T23:59:50.815Z,82.10
